Terminal Aerodrome Forecast
Issued by NWS

Home | Current Version | Previous Version | Text Only | Print | Product List | Glossary On
Versions: 1 2 3 4 5 6 7 8 9 10 11 12 13 14 15 16 17 18 19
000
FTUS45 KPIH 281100
TAFSUN
TAF
KSUN 281120Z 2812/0112 32006KT P6SM FEW035 BKN080
     FM281800 32013KT P6SM VCSH SCT040 BKN080
     FM010300 32007KT P6SM FEW080
      AMD LTD TO CLD VIS AND WIND TIL 281400=

USA.gov is the U.S. government's official web portal to all federal, state and local government web resources and services.